createdAt,value
2019-02-25T00:00:12.620Z,99.90
2019-02-25T00:02:52.584Z,99.90
2019-02-25T00:05:32.638Z,99.90
2019-02-25T00:08:12.829Z,99.90
2019-02-25T00:10:52.918Z,99.90
2019-02-25T00:13:32.833Z,99.90
2019-02-25T00:16:12.989Z,99.90
2019-02-25T00:18:52.678Z,99.90
2019-02-25T00:21:32.043Z,99.90
2019-02-25T00:24:12.297Z,99.90
2019-02-25T00:26:52.177Z,99.90
2019-02-25T00:29:32.329Z,99.90
2019-02-25T00:32:12.396Z,99.90
2019-02-25T00:34:52.395Z,99.90
2019-02-25T00:37:32.798Z,99.90
2019-02-25T00:40:12.693Z,99.90
2019-02-25T00:42:52.686Z,99.90
2019-02-25T00:45:32.621Z,99.90
2019-02-25T00:48:12.546Z,99.90
2019-02-25T00:50:52.682Z,99.90
2019-02-25T00:53:32.721Z,99.90
2019-02-25T00:56:12.760Z,99.90
2019-02-25T00:58:52.894Z,99.90
2019-02-25T01:01:32.850Z,99.90
2019-02-25T01:04:12.811Z,99.90
2019-02-25T01:06:52.089Z,99.90
2019-02-25T01:09:32.055Z,99.90
2019-02-25T01:12:12.066Z,99.90
2019-02-25T01:14:52.205Z,99.90
2019-02-25T01:17:31.358Z,99.90
2019-02-25T01:20:10.610Z,99.90
2019-02-25T01:22:50.705Z,99.90
2019-02-25T01:25:30.733Z,99.90
2019-02-25T01:28:09.843Z,99.90
2019-02-25T01:30:49.030Z,99.90
2019-02-25T01:33:28.341Z,99.90
2019-02-25T01:36:07.846Z,99.90
2019-02-25T01:38:47.689Z,99.90
2019-02-25T01:41:26.876Z,99.90
2019-02-25T01:44:06.962Z,99.90
2019-02-25T01:46:47.012Z,99.90
2019-02-25T01:49:26.937Z,99.90
2019-02-25T01:52:06.129Z,99.90
2019-02-25T01:54:46.198Z,99.90
2019-02-25T01:57:26.609Z,99.90
2019-02-25T02:00:06.512Z,99.90
2019-02-25T02:02:46.519Z,99.90
2019-02-25T02:05:26.574Z,99.90
2019-02-25T02:08:06.564Z,99.90
2019-02-25T02:10:46.517Z,99.90
2019-02-25T02:13:26.757Z,99.90
2019-02-25T02:16:06.497Z,99.90
2019-02-25T02:18:46.565Z,99.90
2019-02-25T02:21:25.935Z,99.90
2019-02-25T02:24:05.704Z,99.90
2019-02-25T02:26:44.826Z,99.90
2019-02-25T02:29:25.124Z,99.90
2019-02-25T02:32:04.742Z,99.90
2019-02-25T02:34:44.810Z,99.90
2019-02-25T02:37:24.017Z,99.90
2019-02-25T02:40:04.010Z,99.90
2019-02-25T02:42:44.085Z,99.90
2019-02-25T02:45:24.186Z,99.90
2019-02-25T02:48:04.278Z,99.90
2019-02-25T02:50:44.427Z,99.90
2019-02-25T02:53:24.438Z,99.90
2019-02-25T02:55:51.203Z,99.90
2019-02-25T02:58:37.604Z,99.90
2019-02-25T03:01:23.999Z,99.90
2019-02-25T03:04:10.388Z,99.90
2019-02-25T03:06:37.142Z,99.90
2019-02-25T03:09:23.541Z,99.90
2019-02-25T03:12:10.047Z,99.90
2019-02-25T03:14:56.793Z,99.90
2019-02-25T03:17:43.309Z,99.90
2019-02-25T03:20:29.716Z,99.90
2019-02-25T03:23:16.217Z,99.90
2019-02-25T03:26:02.962Z,99.90
2019-02-25T03:28:49.371Z,99.90
2019-02-25T03:31:35.754Z,99.90
2019-02-25T03:34:22.214Z,99.90
2019-02-25T03:37:08.622Z,99.90
2019-02-25T03:39:55.037Z,99.90
2019-02-25T03:42:41.440Z,99.90
2019-02-25T03:45:21.336Z,99.90
2019-02-25T03:48:01.013Z,99.90
2019-02-25T03:50:41.055Z,99.90
2019-02-25T03:53:21.130Z,99.90
2019-02-25T03:56:01.259Z,99.90
2019-02-25T03:58:41.318Z,99.90
2019-02-25T04:01:21.429Z,99.90
2019-02-25T04:04:00.956Z,99.90
2019-02-25T04:07:09.102Z,99.90
2019-02-25T04:09:36.191Z,99.90
2019-02-25T04:12:22.609Z,99.90
2019-02-25T04:18:08.702Z,99.90
2019-02-25T04:20:55.360Z,99.90
2019-02-25T04:23:41.747Z,99.90
2019-02-25T04:26:28.275Z,99.90
2019-02-25T04:29:14.965Z,99.90
2019-02-25T04:32:01.381Z,99.90
2019-02-25T04:34:47.812Z,99.90
2019-02-25T04:37:34.217Z,99.90
2019-02-25T04:40:20.614Z,99.90
2019-02-25T04:43:07.194Z,99.90
2019-02-25T04:45:47.116Z,99.90
2019-02-25T04:48:26.422Z,99.90
2019-02-25T04:51:06.514Z,99.90
2019-02-25T04:53:45.929Z,99.90
2019-02-25T04:56:25.539Z,99.90
2019-02-25T04:59:05.245Z,99.90
2019-02-25T05:01:45.327Z,99.90
2019-02-25T05:04:25.625Z,99.90
2019-02-25T05:07:05.589Z,99.90
2019-02-25T05:09:45.806Z,99.90
2019-02-25T05:12:25.757Z,99.90
2019-02-25T05:15:06.084Z,99.90
2019-02-25T05:17:45.974Z,99.90
2019-02-25T05:20:25.141Z,99.90
2019-02-25T05:23:05.612Z,99.90
2019-02-25T05:25:45.429Z,99.90
2019-02-25T05:28:25.151Z,99.90
2019-02-25T05:31:04.466Z,99.90
2019-02-25T05:36:52.965Z,99.90
2019-02-25T05:39:33.021Z,99.90
2019-02-25T05:42:12.427Z,99.90
2019-02-25T05:44:52.683Z,99.90
2019-02-25T05:47:32.714Z,99.90
2019-02-25T05:50:12.643Z,99.90
2019-02-25T05:52:51.810Z,99.90
2019-02-25T05:55:32.085Z,99.90
2019-02-25T05:58:13.985Z,99.90
2019-02-25T06:00:53.368Z,99.90
2019-02-25T06:03:33.117Z,99.90
2019-02-25T06:06:13.239Z,99.90
2019-02-25T06:08:52.885Z,99.90
2019-02-25T06:11:33.245Z,99.90
2019-02-25T06:14:13.093Z,99.90
2019-02-25T06:16:52.250Z,99.90
2019-02-25T06:19:31.526Z,99.90
2019-02-25T06:22:11.443Z,99.90
2019-02-25T06:24:51.592Z,99.90
2019-02-25T06:27:31.634Z,99.90
2019-02-25T06:30:10.901Z,99.90
2019-02-25T06:32:50.749Z,99.90
2019-02-25T06:35:30.749Z,99.90
2019-02-25T06:38:10.812Z,99.90
2019-02-25T06:40:50.776Z,99.90
2019-02-25T06:43:31.057Z,99.90
2019-02-25T06:46:11.041Z,99.90
2019-02-25T06:48:50.313Z,99.90
2019-02-25T06:51:30.149Z,99.90
2019-02-25T06:54:10.085Z,99.90
2019-02-25T06:56:49.852Z,99.90
2019-02-25T06:59:29.958Z,99.90
2019-02-25T07:02:09.281Z,99.90
2019-02-25T07:04:59.153Z,99.90
2019-02-25T07:07:58.224Z,99.90
2019-02-25T07:10:47.623Z,99.90
2019-02-25T07:13:37.677Z,99.90
2019-02-25T07:16:36.906Z,99.90
2019-02-25T07:19:26.994Z,99.90
2019-02-25T07:22:26.189Z,99.90
2019-02-25T07:25:28.070Z,99.90
2019-02-25T07:28:27.288Z,99.90
2019-02-25T07:31:26.521Z,99.90
2019-02-25T07:34:15.200Z,99.90
2019-02-25T07:37:02.237Z,99.90
2019-02-25T07:40:01.199Z,99.90
2019-02-25T07:42:48.769Z,99.90
2019-02-25T07:45:48.415Z,99.90
2019-02-25T07:48:40.332Z,99.90
2019-02-25T07:51:34.170Z,99.90
2019-02-25T07:54:33.063Z,99.90
2019-02-25T07:57:32.137Z,99.90
2019-02-25T08:00:22.893Z,99.90
2019-02-25T08:03:12.882Z,99.90
2019-02-25T08:06:12.463Z,99.90
2019-02-25T08:09:04.732Z,99.90
2019-02-25T08:12:09.733Z,99.90
2019-02-25T08:14:56.260Z,99.90
2019-02-25T08:18:02.418Z,99.90
2019-02-25T08:21:08.787Z,99.90
2019-02-25T08:24:02.659Z,99.90
2019-02-25T08:27:08.711Z,99.90
2019-02-25T08:30:14.890Z,99.90
2019-02-25T08:33:21.043Z,99.90
2019-02-25T08:36:37.541Z,99.90
2019-02-25T08:39:43.790Z,99.90
2019-02-25T08:42:49.493Z,99.90
2019-02-25T08:45:37.543Z,99.90
2019-02-25T08:48:21.921Z,99.90
2019-02-25T08:51:02.098Z,99.90
2019-02-25T08:53:41.541Z,99.90
2019-02-25T08:56:21.258Z,99.90
2019-02-25T08:59:01.325Z,99.90
2019-02-25T09:01:41.284Z,99.90
2019-02-25T09:04:21.266Z,99.90
2019-02-25T09:07:01.252Z,99.90
2019-02-25T09:09:41.425Z,88.00
2019-02-25T09:12:20.753Z,60.30
2019-02-25T09:15:00.014Z,44.10
2019-02-25T09:17:40.121Z,40.70
2019-02-25T09:20:20.209Z,38.50
2019-02-25T09:23:00.259Z,37.10
2019-02-25T09:25:40.197Z,36.90
2019-02-25T09:28:20.608Z,36.10
2019-02-25T09:31:00.050Z,36.00
2019-02-25T09:33:40.300Z,36.20
2019-02-25T09:36:20.194Z,34.70
2019-02-25T09:38:59.394Z,32.30
2019-02-25T09:41:38.732Z,33.70
2019-02-25T09:44:18.769Z,32.10
2019-02-25T09:46:58.715Z,34.70
2019-02-25T09:49:38.848Z,35.40
2019-02-25T09:52:19.175Z,35.20
2019-02-25T09:54:58.793Z,34.20
2019-02-25T09:57:38.697Z,33.00
2019-02-25T10:00:17.902Z,31.50
2019-02-25T10:02:57.978Z,31.70
2019-02-25T10:05:38.270Z,32.10
2019-02-25T10:08:18.131Z,32.50
2019-02-25T10:10:58.313Z,29.60
2019-02-25T10:13:38.306Z,28.70
2019-02-25T10:16:17.615Z,28.20
2019-02-25T10:18:56.872Z,28.80
2019-02-25T10:21:36.947Z,29.20
2019-02-25T10:24:17.006Z,29.70
2019-02-25T10:26:57.124Z,28.90
2019-02-25T10:29:37.165Z,27.90
2019-02-25T10:32:16.297Z,26.90
2019-02-25T10:34:55.582Z,27.80
2019-02-25T10:37:36.403Z,27.10
2019-02-25T10:40:21.606Z,27.90
2019-02-25T10:42:58.868Z,27.70
2019-02-25T10:45:40.667Z,27.60
2019-02-25T10:48:21.615Z,28.50
2019-02-25T10:51:02.759Z,27.50
2019-02-25T10:53:45.268Z,26.00
2019-02-25T10:56:25.969Z,26.30
2019-02-25T10:59:06.208Z,27.60
2019-02-25T11:01:47.567Z,28.60
2019-02-25T11:04:27.232Z,27.60
2019-02-25T11:07:09.409Z,27.80
2019-02-25T11:10:16.030Z,29.80
2019-02-25T11:12:57.582Z,27.90
2019-02-25T11:15:39.653Z,29.00
2019-02-25T11:18:21.930Z,28.20
2019-02-25T11:21:01.348Z,29.30
2019-02-25T11:23:43.432Z,30.00
2019-02-25T11:26:26.632Z,29.40
2019-02-25T11:29:07.206Z,28.80
2019-02-25T11:31:47.824Z,29.30
2019-02-25T11:34:29.549Z,29.50
2019-02-25T11:37:10.269Z,30.00
2019-02-25T11:39:50.271Z,30.90
2019-02-25T11:42:29.458Z,29.90
2019-02-25T11:45:09.411Z,29.50
2019-02-25T11:47:49.484Z,31.00
2019-02-25T11:50:29.556Z,32.60
2019-02-25T11:53:09.652Z,33.40
2019-02-25T11:55:49.817Z,34.90
2019-02-25T11:58:29.006Z,34.70
2019-02-25T12:01:09.214Z,34.50
2019-02-25T12:03:49.025Z,36.30
2019-02-25T12:06:29.138Z,35.40
2019-02-25T12:09:09.282Z,35.00
2019-02-25T12:11:49.133Z,36.90
2019-02-25T12:14:29.217Z,36.10
2019-02-25T12:17:09.249Z,35.50
2019-02-25T12:19:49.265Z,38.00
2019-02-25T12:22:28.468Z,42.30
2019-02-25T12:25:08.278Z,44.80
2019-02-25T12:27:48.337Z,47.80
2019-02-25T12:30:28.328Z,46.50
2019-02-25T12:33:08.407Z,45.90
2019-02-25T12:35:48.285Z,46.40
2019-02-25T12:38:27.510Z,45.40
2019-02-25T12:41:07.673Z,45.80
2019-02-25T12:43:48.058Z,45.40
2019-02-25T12:46:27.917Z,45.40
2019-02-25T12:49:07.477Z,47.60
2019-02-25T12:51:47.469Z,47.70
2019-02-25T12:54:27.786Z,46.10
2019-02-25T12:57:07.510Z,46.80
2019-02-25T12:59:47.410Z,45.40
2019-02-25T13:02:27.539Z,47.10
2019-02-25T13:05:07.757Z,47.10
2019-02-25T13:07:47.753Z,44.60
2019-02-25T13:10:27.666Z,46.10
2019-02-25T13:13:07.789Z,41.50
2019-02-25T13:15:48.274Z,40.10
2019-02-25T13:18:27.975Z,37.10
2019-02-25T13:21:08.025Z,37.30
2019-02-25T13:23:47.921Z,34.20
2019-02-25T13:26:29.297Z,33.70
2019-02-25T13:29:10.004Z,35.40
2019-02-25T13:31:50.187Z,35.40
2019-02-25T13:34:30.198Z,36.80
2019-02-25T13:37:09.434Z,35.60
2019-02-25T13:39:49.657Z,37.50
2019-02-25T13:42:30.069Z,36.50
2019-02-25T13:45:09.888Z,33.80
2019-02-25T13:47:49.790Z,35.10
2019-02-25T13:50:29.983Z,33.10
2019-02-25T13:53:09.993Z,32.60
2019-02-25T13:55:50.397Z,34.10
2019-02-25T13:58:30.211Z,33.50
2019-02-25T14:01:10.500Z,34.10
2019-02-25T14:03:50.831Z,32.90
2019-02-25T14:06:30.582Z,32.20
2019-02-25T14:09:11.335Z,32.00
2019-02-25T14:11:51.110Z,32.20
2019-02-25T14:14:30.978Z,33.50
2019-02-25T14:17:11.125Z,33.00
2019-02-25T14:19:51.929Z,33.50
2019-02-25T14:22:31.430Z,33.10
2019-02-25T14:25:12.587Z,34.40
2019-02-25T14:27:52.869Z,33.60
2019-02-25T14:30:33.453Z,33.00
2019-02-25T14:33:14.793Z,34.70
2019-02-25T14:35:55.669Z,35.10
2019-02-25T14:38:37.100Z,37.40
2019-02-25T14:41:18.350Z,38.20
2019-02-25T14:43:58.726Z,39.30
2019-02-25T14:46:38.954Z,42.70
2019-02-25T14:49:19.449Z,41.90
2019-02-25T14:51:59.725Z,42.70
2019-02-25T14:54:39.590Z,42.70
2019-02-25T14:57:20.446Z,44.30
2019-02-25T15:00:00.802Z,46.50
2019-02-25T15:02:41.371Z,49.20
2019-02-25T15:05:21.555Z,47.20
2019-02-25T15:08:01.495Z,50.00
2019-02-25T15:10:42.886Z,53.30
2019-02-25T15:13:51.309Z,56.50
2019-02-25T15:16:37.809Z,53.80
2019-02-25T15:19:24.381Z,52.10
2019-02-25T15:22:10.815Z,50.40
2019-02-25T15:24:59.126Z,55.90
2019-02-25T15:27:45.993Z,57.30
2019-02-25T15:30:32.487Z,63.20
2019-02-25T15:33:19.012Z,71.90
2019-02-25T15:36:05.505Z,75.40
2019-02-25T15:38:52.104Z,79.20
2019-02-25T15:41:40.480Z,88.40
2019-02-25T15:44:20.393Z,82.70
2019-02-25T15:47:02.780Z,78.40
2019-02-25T15:49:42.612Z,77.90
2019-02-25T15:52:23.288Z,80.50
2019-02-25T15:55:04.761Z,85.50
2019-02-25T15:57:44.694Z,92.30
2019-02-25T16:00:27.495Z,95.90
2019-02-25T16:03:09.132Z,97.70
2019-02-25T16:05:38.279Z,99.90
2019-02-25T16:11:25.596Z,99.90
2019-02-25T16:13:53.233Z,99.90
2019-02-25T16:16:20.203Z,99.90
2019-02-25T16:18:47.683Z,99.90
2019-02-25T16:21:14.796Z,99.90
2019-02-25T16:23:43.193Z,99.90
2019-02-25T16:26:11.211Z,99.90
2019-02-25T16:28:39.950Z,99.90
2019-02-25T16:31:08.385Z,99.90
2019-02-25T16:33:57.238Z,99.90
2019-02-25T16:36:45.228Z,99.90
2019-02-25T16:39:32.278Z,99.90
2019-02-25T16:42:18.681Z,99.90
2019-02-25T16:45:00.980Z,99.90
2019-02-25T16:47:39.069Z,99.90
2019-02-25T16:50:20.951Z,99.90
2019-02-25T16:53:03.756Z,99.90
2019-02-25T16:55:45.075Z,99.90
2019-02-25T16:58:25.461Z,99.90
2019-02-25T17:01:07.821Z,99.90
2019-02-25T17:03:48.244Z,99.90
2019-02-25T17:06:28.184Z,99.90
2019-02-25T17:09:09.873Z,99.90
2019-02-25T17:11:50.862Z,99.90
2019-02-25T17:14:30.968Z,99.90
2019-02-25T17:17:11.010Z,99.90
2019-02-25T17:19:51.517Z,99.90
2019-02-25T17:22:33.134Z,99.90
2019-02-25T17:25:13.677Z,99.90
2019-02-25T17:27:53.860Z,99.90
2019-02-25T17:30:33.789Z,99.90
2019-02-25T17:35:59.557Z,99.90
2019-02-25T17:38:51.520Z,99.90
2019-02-25T17:41:39.930Z,99.90
2019-02-25T17:44:20.641Z,99.90
2019-02-25T17:47:02.168Z,99.90
2019-02-25T17:49:43.089Z,99.90
2019-02-25T17:52:12.294Z,99.90
2019-02-25T17:54:58.746Z,99.90
2019-02-25T17:57:45.757Z,99.90
2019-02-25T18:00:56.359Z,99.90
2019-02-25T18:03:44.370Z,99.90
2019-02-25T18:06:32.435Z,99.90
2019-02-25T18:09:20.865Z,99.90
2019-02-25T18:12:10.661Z,99.90
2019-02-25T18:14:58.997Z,99.90
2019-02-25T18:17:47.098Z,99.90
2019-02-25T18:20:36.605Z,99.90
2019-02-25T18:23:23.004Z,99.90
2019-02-25T18:26:09.812Z,99.90
2019-02-25T18:28:37.439Z,99.90
2019-02-25T18:31:25.654Z,99.90
2019-02-25T18:34:13.121Z,99.90
2019-02-25T18:37:00.912Z,99.90
2019-02-25T18:39:47.867Z,99.90
2019-02-25T18:42:46.413Z,99.90
2019-02-25T18:45:26.366Z,99.90
2019-02-25T18:48:06.702Z,99.90
2019-02-25T18:50:47.453Z,99.90
2019-02-25T18:53:28.733Z,99.90
2019-02-25T18:56:11.624Z,99.90
2019-02-25T18:58:50.337Z,99.90
2019-02-25T19:01:30.559Z,99.90
2019-02-25T19:04:11.000Z,99.90
2019-02-25T19:06:51.509Z,99.90
2019-02-25T19:09:31.584Z,99.90
2019-02-25T19:12:11.569Z,99.90
2019-02-25T19:14:55.165Z,99.90
2019-02-25T19:17:23.151Z,99.90
2019-02-25T19:20:10.764Z,99.90
2019-02-25T19:23:00.483Z,99.90
2019-02-25T19:25:45.941Z,99.90
2019-02-25T19:28:32.533Z,99.90
2019-02-25T19:31:19.244Z,99.90
2019-02-25T19:34:05.816Z,99.90
2019-02-25T19:36:52.379Z,99.90
2019-02-25T19:39:39.680Z,99.90
2019-02-25T19:42:29.064Z,99.90
2019-02-25T19:45:10.116Z,99.90
2019-02-25T19:47:50.510Z,99.90
2019-02-25T19:50:32.138Z,99.90
2019-02-25T19:53:13.409Z,99.90
2019-02-25T19:55:54.191Z,99.90
2019-02-25T19:58:34.240Z,99.90
2019-02-25T20:01:14.670Z,99.90
2019-02-25T20:03:42.648Z,99.90
2019-02-25T20:06:30.093Z,99.90
2019-02-25T20:12:24.454Z,99.90
2019-02-25T20:15:13.627Z,99.90
2019-02-25T20:18:00.612Z,99.90
2019-02-25T20:20:47.341Z,99.90
2019-02-25T20:23:33.769Z,99.90
2019-02-25T20:26:22.215Z,99.90
2019-02-25T20:29:10.564Z,99.90
2019-02-25T20:31:58.289Z,99.90
2019-02-25T20:34:46.392Z,99.90
2019-02-25T20:37:34.044Z,99.90
2019-02-25T20:40:24.135Z,99.90
2019-02-25T20:43:10.640Z,99.90
2019-02-25T20:45:54.060Z,99.90
2019-02-25T20:48:33.326Z,99.90
2019-02-25T20:51:12.689Z,99.90
2019-02-25T20:53:52.953Z,99.90
2019-02-25T20:56:33.342Z,99.90
2019-02-25T20:59:13.099Z,99.90
2019-02-25T21:01:53.042Z,99.90
2019-02-25T21:04:36.507Z,99.90
2019-02-25T21:07:15.108Z,99.90
2019-02-25T21:09:56.854Z,99.90
2019-02-25T21:12:37.210Z,99.90
2019-02-25T21:15:17.286Z,99.90
2019-02-25T21:17:59.506Z,99.90
2019-02-25T21:20:38.175Z,99.90
2019-02-25T21:23:18.425Z,99.90
2019-02-25T21:26:00.194Z,99.90
2019-02-25T21:28:42.647Z,99.90
2019-02-25T21:31:23.911Z,99.90
2019-02-25T21:34:03.473Z,99.90
2019-02-25T21:36:42.819Z,99.90
2019-02-25T21:39:22.780Z,99.90
2019-02-25T21:42:02.276Z,99.90
2019-02-25T21:44:46.099Z,99.90
2019-02-25T21:47:24.277Z,99.90
2019-02-25T21:50:07.416Z,99.90
2019-02-25T21:52:47.924Z,99.90
2019-02-25T21:55:30.218Z,99.90
2019-02-25T21:58:10.117Z,99.90
2019-02-25T22:00:49.992Z,99.90
2019-02-25T22:03:30.132Z,99.90
2019-02-25T22:06:09.533Z,99.90
2019-02-25T22:08:52.121Z,99.90
2019-02-25T22:11:31.585Z,99.90
2019-02-25T22:14:12.240Z,99.90
2019-02-25T22:16:54.371Z,99.90
2019-02-25T22:19:39.085Z,99.90
2019-02-25T22:22:19.367Z,99.90
2019-02-25T22:25:04.113Z,99.90
2019-02-25T22:27:41.320Z,99.90
2019-02-25T22:30:21.840Z,99.90
2019-02-25T22:33:03.026Z,99.90
2019-02-25T22:35:46.877Z,99.90
2019-02-25T22:38:25.049Z,99.90
2019-02-25T22:41:05.140Z,99.90
2019-02-25T22:43:46.508Z,99.90
2019-02-25T22:46:29.946Z,99.90
2019-02-25T22:49:09.468Z,99.90
2019-02-25T22:51:51.704Z,99.90
2019-02-25T22:54:30.516Z,99.90
2019-02-25T22:57:10.443Z,99.90
2019-02-25T22:59:51.185Z,99.90
2019-02-25T23:02:30.629Z,99.90
2019-02-25T23:05:12.704Z,99.90
2019-02-25T23:07:54.573Z,99.90
2019-02-25T23:10:33.468Z,99.90
2019-02-25T23:13:13.622Z,99.90
2019-02-25T23:15:53.546Z,99.90
2019-02-25T23:18:33.316Z,99.90
2019-02-25T23:21:13.019Z,99.90
2019-02-25T23:23:55.590Z,99.90
2019-02-25T23:26:35.244Z,99.90
2019-02-25T23:29:16.032Z,99.90
2019-02-25T23:31:56.760Z,99.90
2019-02-25T23:34:38.714Z,99.90
2019-02-25T23:37:19.960Z,99.90
2019-02-25T23:40:02.225Z,99.90
2019-02-25T23:42:41.757Z,99.90
2019-02-25T23:45:10.638Z,99.90
2019-02-25T23:47:59.479Z,99.90
2019-02-25T23:50:45.782Z,99.90
2019-02-25T23:53:32.920Z,99.90
2019-02-25T23:56:22.764Z,99.90
2019-02-25T23:59:12.692Z,99.90
